Terminal Aerodrome Forecast
Issued by NWS Paducah, KY

Home | Current Version | Previous Version | Graphics & Text | Print | Product List | Glossary On
Versions: 1 2 3 4 5 6 7 8 9 10 11 12 13 14 15 16 17
000
FTUS43 KPAH 191720
TAFEVV
TAF
KEVV 191720Z 1918/2018 09005KT 4SM BR VCSH SCT005 OVC015
      TEMPO 1918/1922 2SM BR OVC004
     FM192200 20007KT 5SM BR OVC020
     FM200000 22007KT P6SM VCTS BKN030CB
     FM200800 19006KT 4SM -SHRA BR BKN015 PROB30 2008/2014 2SM TSRA
      BR OVC008CB
     FM201400 27012G20KT P6SM BKN025=

USA.gov is the U.S. government's official web portal to all federal, state and local government web resources and services.